createdAt,value
2019-04-25T00:01:06.227Z,97.78
2019-04-25T00:03:40.817Z,97.87
2019-04-25T00:06:14.914Z,97.93
2019-04-25T00:08:47.750Z,98.04
2019-04-25T00:11:21.584Z,97.92
2019-04-25T00:13:54.508Z,97.96
2019-04-25T00:16:27.701Z,98.42
2019-04-25T00:19:01.840Z,98.42
2019-04-25T00:21:34.853Z,97.19
2019-04-25T00:24:08.000Z,97.19
2019-04-25T00:26:42.597Z,97.47
2019-04-25T00:29:15.621Z,97.61
2019-04-25T00:31:49.246Z,97.10
2019-04-25T00:34:22.470Z,97.55
2019-04-25T00:36:55.370Z,97.55
2019-04-25T00:39:28.206Z,97.41
2019-04-25T00:42:02.331Z,97.04
2019-04-25T00:44:35.341Z,96.77
2019-04-25T00:47:08.803Z,96.77
2019-04-25T00:49:43.049Z,96.86
2019-04-25T00:52:16.240Z,96.97
2019-04-25T00:54:49.073Z,96.34
2019-04-25T00:57:22.082Z,96.17
2019-04-25T00:59:54.948Z,96.29
2019-04-25T01:02:27.850Z,96.50
2019-04-25T01:05:01.850Z,96.42
2019-04-25T01:07:34.877Z,96.42
2019-04-25T01:10:08.359Z,96.30
2019-04-25T01:12:41.697Z,96.70
2019-04-25T01:15:14.688Z,96.48
2019-04-25T01:17:47.591Z,96.78
2019-04-25T01:20:20.429Z,97.22
2019-04-25T01:22:54.267Z,96.98
2019-04-25T01:25:38.542Z,97.47
2019-04-25T01:28:03.264Z,97.47
2019-04-25T01:30:36.332Z,97.23
2019-04-25T01:33:09.351Z,97.23
2019-04-25T01:35:43.103Z,97.24
2019-04-25T01:38:17.120Z,97.37
2019-04-25T01:40:51.014Z,97.42
2019-04-25T01:43:24.344Z,97.92
2019-04-25T01:45:57.945Z,97.92
2019-04-25T01:48:31.135Z,97.96
2019-04-25T01:51:04.272Z,97.69
2019-04-25T01:53:37.486Z,97.83
2019-04-25T01:56:13.419Z,97.97
2019-04-25T01:58:46.700Z,97.92
2019-04-25T02:01:19.682Z,97.92
2019-04-25T02:03:54.354Z,98.25
2019-04-25T02:06:34.558Z,98.25
2019-04-25T02:09:08.455Z,98.19
2019-04-25T02:11:41.488Z,98.36
2019-04-25T02:14:14.474Z,98.36
2019-04-25T02:16:47.393Z,98.30
2019-04-25T02:19:20.759Z,98.34
2019-04-25T02:21:55.146Z,98.39
2019-04-25T02:24:28.603Z,98.52
2019-04-25T02:27:03.763Z,98.50
2019-04-25T02:29:37.156Z,98.50
2019-04-25T02:32:10.634Z,98.70
2019-04-25T02:34:45.530Z,98.78
2019-04-25T02:37:18.532Z,98.62
2019-04-25T02:39:51.529Z,98.79
2019-04-25T02:42:24.876Z,98.87
2019-04-25T02:45:00.573Z,98.87
2019-04-25T02:47:34.459Z,99.20
2019-04-25T02:50:09.171Z,99.20
2019-04-25T02:52:44.232Z,98.83
2019-04-25T02:55:30.896Z,98.73
2019-04-25T02:57:54.115Z,98.92
2019-04-25T03:00:27.367Z,98.92
2019-04-25T03:03:01.217Z,98.98
2019-04-25T03:05:35.441Z,98.98
2019-04-25T03:08:10.629Z,99.02
2019-04-25T03:10:44.411Z,99.02
2019-04-25T03:13:17.743Z,99.11
2019-04-25T03:15:52.818Z,99.13
2019-04-25T03:18:25.784Z,99.45
2019-04-25T03:20:59.734Z,99.12
2019-04-25T03:23:34.966Z,99.12
2019-04-25T03:26:09.165Z,99.48
2019-04-25T03:28:43.753Z,99.24
2019-04-25T03:31:22.675Z,99.64
2019-04-25T03:33:52.124Z,99.64
2019-04-25T03:36:25.488Z,99.52
2019-04-25T03:38:58.377Z,99.52
2019-04-25T03:41:31.599Z,99.49
2019-04-25T03:44:05.662Z,99.49
2019-04-25T03:46:39.531Z,99.53
2019-04-25T03:49:13.879Z,99.45
2019-04-25T03:51:47.479Z,99.34
2019-04-25T03:54:20.810Z,99.34
2019-04-25T03:56:56.163Z,99.05
2019-04-25T03:59:28.894Z,99.05
2019-04-25T04:02:03.080Z,99.49
2019-04-25T04:04:36.590Z,99.49
2019-04-25T04:07:11.396Z,99.78
2019-04-25T04:09:44.930Z,99.80
2019-04-25T04:12:18.381Z,99.80
2019-04-25T04:14:51.299Z,100.00
2019-04-25T04:17:24.234Z,99.63
2019-04-25T04:19:57.418Z,99.61
2019-04-25T04:22:30.485Z,99.69
2019-04-25T04:25:03.861Z,99.72
2019-04-25T04:27:36.900Z,100.00
2019-04-25T04:30:10.132Z,99.91
2019-04-25T04:32:44.161Z,99.85
2019-04-25T04:35:19.429Z,99.60
2019-04-25T04:37:54.139Z,99.60
2019-04-25T04:40:27.169Z,99.59
2019-04-25T04:43:00.185Z,99.59
2019-04-25T04:45:34.528Z,99.80
2019-04-25T04:48:08.679Z,99.80
2019-04-25T04:50:43.138Z,99.21
2019-04-25T04:53:17.193Z,99.21
2019-04-25T04:55:50.324Z,99.12
2019-04-25T04:58:24.979Z,99.09
2019-04-25T05:00:58.112Z,99.09
2019-04-25T05:03:31.679Z,98.88
2019-04-25T05:06:04.970Z,98.88
2019-04-25T05:08:38.153Z,99.07
2019-04-25T05:11:12.390Z,99.11
2019-04-25T05:13:46.055Z,99.05
2019-04-25T05:16:19.864Z,98.92
2019-04-25T05:18:53.619Z,98.92
2019-04-25T05:21:27.575Z,98.77
2019-04-25T05:24:00.542Z,98.79
2019-04-25T05:26:34.175Z,98.60
2019-04-25T05:29:07.341Z,98.60
2019-04-25T05:31:40.737Z,98.64
2019-04-25T05:34:15.743Z,98.59
2019-04-25T05:36:48.426Z,98.59
2019-04-25T05:39:24.064Z,98.14
2019-04-25T05:41:57.759Z,98.04
2019-04-25T05:44:30.858Z,97.76
2019-04-25T05:47:04.188Z,97.76
2019-04-25T05:49:37.298Z,97.18
2019-04-25T05:52:10.306Z,97.15
2019-04-25T05:54:44.351Z,96.88
2019-04-25T05:57:18.079Z,96.49
2019-04-25T05:59:51.341Z,95.90
2019-04-25T06:02:25.363Z,95.57
2019-04-25T06:04:58.859Z,95.21
2019-04-25T06:07:33.296Z,94.79
2019-04-25T06:10:06.988Z,94.15
2019-04-25T06:12:40.083Z,94.11
2019-04-25T06:15:13.315Z,94.11
2019-04-25T06:17:46.630Z,93.74
2019-04-25T06:20:20.097Z,93.68
2019-04-25T06:22:53.470Z,93.35
2019-04-25T06:25:31.816Z,93.01
2019-04-25T06:28:01.502Z,92.43
2019-04-25T06:30:35.227Z,91.90
2019-04-25T06:33:11.340Z,91.72
2019-04-25T06:35:44.425Z,91.08
2019-04-25T06:38:17.331Z,90.57
2019-04-25T06:40:50.504Z,90.57
2019-04-25T06:43:24.616Z,89.24
2019-04-25T06:45:58.117Z,88.05
2019-04-25T06:48:31.153Z,88.05
2019-04-25T06:51:04.388Z,89.04
2019-04-25T06:53:37.449Z,89.04
2019-04-25T06:56:10.636Z,86.64
2019-04-25T06:58:44.046Z,86.86
2019-04-25T07:01:17.170Z,86.39
2019-04-25T07:03:50.091Z,86.39
2019-04-25T07:06:24.897Z,86.05
2019-04-25T07:08:57.924Z,85.10
2019-04-25T07:11:32.448Z,84.07
2019-04-25T07:14:06.404Z,84.23
2019-04-25T07:16:39.679Z,83.47
2019-04-25T07:19:14.687Z,83.73
2019-04-25T07:21:47.991Z,81.85
2019-04-25T07:24:21.005Z,81.55
2019-04-25T07:26:54.110Z,80.44
2019-04-25T07:29:27.095Z,79.95
2019-04-25T07:32:00.289Z,79.95
2019-04-25T07:34:34.117Z,79.21
2019-04-25T07:37:08.165Z,78.68
2019-04-25T07:39:41.234Z,79.76
2019-04-25T07:42:14.352Z,77.86
2019-04-25T07:44:52.645Z,78.63
2019-04-25T07:47:24.085Z,75.94
2019-04-25T07:49:56.865Z,75.94
2019-04-25T07:52:30.906Z,77.41
2019-04-25T07:55:04.414Z,74.69
2019-04-25T07:57:38.611Z,72.92
2019-04-25T08:00:14.115Z,72.92
2019-04-25T08:02:47.104Z,70.79
2019-04-25T08:05:20.270Z,71.03
2019-04-25T08:07:53.644Z,71.03
2019-04-25T08:10:30.019Z,68.46
2019-04-25T08:13:04.937Z,68.46
2019-04-25T08:15:38.357Z,68.49
2019-04-25T08:18:11.543Z,67.08
2019-04-25T08:20:44.534Z,67.81
2019-04-25T08:23:17.896Z,67.77
2019-04-25T08:25:50.918Z,68.30
2019-04-25T08:28:24.072Z,67.87
2019-04-25T08:30:56.965Z,70.61
2019-04-25T08:33:30.516Z,69.55
2019-04-25T08:36:08.915Z,69.55
2019-04-25T08:38:38.401Z,61.63
2019-04-25T08:41:11.682Z,61.63
2019-04-25T08:43:45.446Z,60.88
2019-04-25T08:46:18.573Z,60.87
2019-04-25T08:48:51.816Z,62.51
2019-04-25T08:51:24.831Z,64.89
2019-04-25T08:53:57.843Z,66.63
2019-04-25T08:56:31.882Z,65.26
2019-04-25T08:59:07.957Z,65.44
2019-04-25T09:01:41.715Z,64.99
2019-04-25T09:04:15.298Z,64.99
2019-04-25T09:06:48.292Z,63.43
2019-04-25T09:09:21.332Z,61.95
2019-04-25T09:11:54.443Z,56.43
2019-04-25T09:14:28.054Z,46.21
2019-04-25T09:17:01.352Z,48.43
2019-04-25T09:19:36.218Z,48.73
2019-04-25T09:22:09.011Z,55.34
2019-04-25T09:24:42.134Z,57.84
2019-04-25T09:27:15.200Z,57.84
2019-04-25T09:29:48.258Z,57.86
2019-04-25T09:32:21.307Z,60.03
2019-04-25T09:34:55.445Z,57.55
2019-04-25T09:37:29.111Z,56.26
2019-04-25T09:40:03.948Z,51.96
2019-04-25T09:42:37.148Z,52.04
2019-04-25T09:45:11.112Z,52.73
2019-04-25T09:47:44.847Z,49.82
2019-04-25T09:50:18.761Z,43.17
2019-04-25T09:52:51.743Z,41.53
2019-04-25T09:55:24.690Z,41.53
2019-04-25T09:57:57.667Z,42.00
2019-04-25T10:00:30.710Z,40.67
2019-04-25T10:03:04.657Z,42.40
2019-04-25T10:05:38.487Z,43.07
2019-04-25T10:08:13.335Z,46.69
2019-04-25T10:10:46.730Z,50.14
2019-04-25T10:13:19.749Z,48.74
2019-04-25T10:16:10.567Z,49.27
2019-04-25T10:18:44.590Z,44.13
2019-04-25T10:21:18.247Z,44.13
2019-04-25T10:23:51.483Z,48.00
2019-04-25T10:26:24.679Z,48.00
2019-04-25T10:28:57.940Z,51.11
2019-04-25T10:31:31.215Z,51.17
2019-04-25T10:34:04.259Z,51.54
2019-04-25T10:36:39.838Z,43.71
2019-04-25T10:39:14.171Z,40.02
2019-04-25T10:41:48.285Z,42.72
2019-04-25T10:44:21.518Z,42.72
2019-04-25T10:46:54.838Z,43.64
2019-04-25T10:49:27.851Z,43.64
2019-04-25T10:52:01.006Z,41.31
2019-04-25T10:54:35.149Z,40.44
2019-04-25T10:57:08.307Z,41.81
2019-04-25T10:59:54.584Z,37.34
2019-04-25T11:02:16.214Z,37.07
2019-04-25T11:04:49.800Z,36.90
2019-04-25T11:07:23.477Z,36.90
2019-04-25T11:09:56.573Z,38.34
2019-04-25T11:12:29.544Z,37.61
2019-04-25T11:15:04.043Z,36.43
2019-04-25T11:17:37.256Z,38.36
2019-04-25T11:20:25.905Z,35.78
2019-04-25T11:22:58.995Z,33.92
2019-04-25T11:25:34.073Z,33.92
2019-04-25T11:28:08.702Z,37.30
2019-04-25T11:30:45.463Z,34.31
2019-04-25T11:33:18.696Z,35.50
2019-04-25T11:38:36.762Z,34.83
2019-04-25T11:41:09.896Z,34.17
2019-04-25T11:43:45.356Z,35.70
2019-04-25T11:46:18.287Z,36.79
2019-04-25T11:48:51.399Z,35.45
2019-04-25T11:51:24.530Z,35.45
2019-04-25T11:53:58.075Z,37.40
2019-04-25T11:56:31.278Z,36.48
2019-04-25T11:59:04.571Z,36.48
2019-04-25T12:01:37.658Z,36.23
2019-04-25T12:04:10.625Z,36.46
2019-04-25T12:06:47.101Z,42.75
2019-04-25T12:09:18.854Z,43.45
2019-04-25T12:11:52.811Z,43.45
2019-04-25T12:14:26.556Z,41.27
2019-04-25T12:16:59.458Z,39.22
2019-04-25T12:19:37.231Z,39.78
2019-04-25T12:22:07.293Z,35.08
2019-04-25T12:24:40.507Z,36.19
2019-04-25T12:27:13.443Z,36.19
2019-04-25T12:29:46.360Z,34.91
2019-04-25T12:32:19.674Z,34.32
2019-04-25T12:34:53.633Z,35.27
2019-04-25T12:37:26.774Z,35.73
2019-04-25T12:39:59.858Z,34.70
2019-04-25T12:42:34.284Z,34.70
2019-04-25T12:45:07.613Z,35.91
2019-04-25T12:47:40.548Z,36.89
2019-04-25T12:50:14.354Z,37.78
2019-04-25T12:52:48.598Z,37.78
2019-04-25T12:55:22.067Z,35.79
2019-04-25T12:57:56.237Z,35.79
2019-04-25T13:00:29.421Z,35.38
2019-04-25T13:03:04.061Z,36.35
2019-04-25T13:05:36.821Z,38.22
2019-04-25T13:08:09.787Z,38.22
2019-04-25T13:10:44.390Z,39.49
2019-04-25T13:13:17.648Z,39.36
2019-04-25T13:15:50.514Z,40.53
2019-04-25T13:18:23.587Z,38.20
2019-04-25T13:20:57.489Z,37.06
2019-04-25T13:23:32.009Z,38.32
2019-04-25T13:26:05.452Z,40.73
2019-04-25T13:28:38.249Z,42.57
2019-04-25T13:31:12.989Z,40.87
2019-04-25T13:33:46.129Z,39.02
2019-04-25T13:36:19.313Z,39.02
2019-04-25T13:38:53.867Z,36.78
2019-04-25T13:41:27.144Z,41.24
2019-04-25T13:44:00.942Z,41.24
2019-04-25T13:46:34.356Z,43.44
2019-04-25T13:49:07.333Z,44.27
2019-04-25T13:51:40.449Z,44.27
2019-04-25T13:54:14.674Z,43.29
2019-04-25T13:56:47.813Z,40.99
2019-04-25T13:59:21.708Z,42.88
2019-04-25T14:01:57.484Z,42.88
2019-04-25T14:04:29.545Z,40.65
2019-04-25T14:07:03.139Z,40.65
2019-04-25T14:09:35.958Z,39.83
2019-04-25T14:12:08.992Z,43.21
2019-04-25T14:14:41.884Z,45.67
2019-04-25T14:17:14.870Z,44.95
2019-04-25T14:19:48.019Z,44.95
2019-04-25T14:22:21.215Z,45.78
2019-04-25T14:24:54.937Z,46.87
2019-04-25T14:27:28.037Z,46.87
2019-04-25T14:30:00.964Z,45.65
2019-04-25T14:32:35.106Z,45.65
2019-04-25T14:35:08.305Z,44.64
2019-04-25T14:37:41.186Z,45.11
2019-04-25T14:40:14.399Z,45.12
2019-04-25T14:42:47.318Z,43.41
2019-04-25T14:45:20.225Z,44.02
2019-04-25T14:47:53.111Z,44.02
2019-04-25T14:50:26.016Z,44.86
2019-04-25T14:52:58.889Z,44.51
2019-04-25T14:55:31.749Z,43.96
2019-04-25T14:58:04.940Z,43.96
2019-04-25T15:00:37.913Z,44.00
2019-04-25T15:03:10.822Z,43.52
2019-04-25T15:05:43.685Z,43.71
2019-04-25T15:08:16.566Z,44.02
2019-04-25T15:10:49.378Z,44.02
2019-04-25T15:13:24.098Z,44.39
2019-04-25T15:15:57.084Z,43.01
2019-04-25T15:18:30.986Z,44.72
2019-04-25T15:21:03.989Z,43.32
2019-04-25T15:23:37.185Z,43.32
2019-04-25T15:26:10.000Z,45.02
2019-04-25T15:28:43.638Z,44.77
2019-04-25T15:31:16.821Z,46.02
2019-04-25T15:33:50.674Z,46.14
2019-04-25T15:36:23.650Z,47.00
2019-04-25T15:38:57.814Z,47.94
2019-04-25T15:41:30.637Z,46.72
2019-04-25T15:44:03.774Z,47.54
2019-04-25T15:46:36.599Z,47.78
2019-04-25T15:49:09.639Z,47.78
2019-04-25T15:51:42.464Z,49.72
2019-04-25T15:54:15.345Z,51.24
2019-04-25T15:56:48.293Z,52.34
2019-04-25T15:59:21.735Z,54.27
2019-04-25T16:01:54.752Z,54.27
2019-04-25T16:04:28.257Z,54.27
2019-04-25T16:07:01.183Z,57.49
2019-04-25T16:09:34.583Z,56.78
2019-04-25T16:12:07.594Z,58.57
2019-04-25T16:14:41.235Z,58.57
2019-04-25T16:17:14.266Z,59.56
2019-04-25T16:19:47.286Z,58.56
2019-04-25T16:22:20.359Z,58.56
2019-04-25T16:24:53.456Z,56.60
2019-04-25T16:27:26.405Z,56.60
2019-04-25T16:29:59.515Z,55.89
2019-04-25T16:32:32.498Z,56.75
2019-04-25T16:35:05.672Z,56.65
2019-04-25T16:37:38.938Z,58.55
2019-04-25T16:40:12.120Z,58.55
2019-04-25T16:42:45.076Z,58.08
2019-04-25T16:45:18.267Z,58.92
2019-04-25T16:47:51.280Z,58.92
2019-04-25T16:50:24.709Z,60.01
2019-04-25T16:52:57.699Z,61.57
2019-04-25T16:55:31.700Z,61.57
2019-04-25T16:58:04.750Z,61.42
2019-04-25T17:00:38.342Z,63.04
2019-04-25T17:03:11.317Z,62.29
2019-04-25T17:05:44.294Z,64.89
2019-04-25T17:08:17.199Z,64.58
2019-04-25T17:10:50.424Z,66.91
2019-04-25T17:13:23.351Z,63.18
2019-04-25T17:15:56.342Z,63.18
2019-04-25T17:18:29.722Z,64.06
2019-04-25T17:21:04.114Z,65.78
2019-04-25T17:23:37.288Z,64.95
2019-04-25T17:26:10.491Z,65.81
2019-04-25T17:28:43.521Z,66.24
2019-04-25T17:31:16.545Z,66.81
2019-04-25T17:33:49.471Z,66.81
2019-04-25T17:36:22.613Z,65.92
2019-04-25T17:38:55.689Z,66.25
2019-04-25T17:41:28.757Z,69.14
2019-04-25T17:44:01.653Z,67.08
2019-04-25T17:46:34.697Z,67.08
2019-04-25T17:49:07.648Z,68.48
2019-04-25T17:51:40.744Z,68.48
2019-04-25T17:54:13.802Z,67.61
2019-04-25T17:56:46.797Z,67.57
2019-04-25T17:59:19.701Z,67.88
2019-04-25T18:01:52.808Z,68.52
2019-04-25T18:04:25.908Z,69.15
2019-04-25T18:06:58.846Z,70.28
2019-04-25T18:09:31.886Z,70.28
2019-04-25T18:12:05.011Z,72.58
2019-04-25T18:14:38.440Z,72.80
2019-04-25T18:17:11.475Z,72.80
2019-04-25T18:19:44.793Z,70.41
2019-04-25T18:22:18.010Z,69.75
2019-04-25T18:27:25.507Z,73.52
2019-04-25T18:29:58.584Z,73.93
2019-04-25T18:32:31.556Z,77.86
2019-04-25T18:35:05.113Z,77.86
2019-04-25T18:37:38.539Z,77.59
2019-04-25T18:40:11.721Z,77.59
2019-04-25T18:42:44.908Z,78.32
2019-04-25T18:45:17.743Z,77.69
2019-04-25T18:47:51.103Z,77.69
2019-04-25T18:50:23.930Z,73.93
2019-04-25T18:52:56.885Z,74.57
2019-04-25T18:55:29.706Z,71.87
2019-04-25T18:58:02.582Z,71.87
2019-04-25T19:00:35.637Z,72.24
2019-04-25T19:03:08.598Z,73.09
2019-04-25T19:05:41.421Z,72.98
2019-04-25T19:08:14.674Z,73.53
2019-04-25T19:10:47.506Z,73.53
2019-04-25T19:13:20.413Z,73.05
2019-04-25T19:15:53.567Z,72.80
2019-04-25T19:18:26.459Z,72.83
2019-04-25T19:20:59.377Z,73.69
2019-04-25T19:23:32.955Z,73.69
2019-04-25T19:26:05.896Z,73.16
2019-04-25T19:28:39.994Z,73.16
2019-04-25T19:31:13.920Z,75.37
2019-04-25T19:33:47.555Z,76.94
2019-04-25T19:36:20.557Z,76.75
2019-04-25T19:38:53.627Z,76.75
2019-04-25T19:41:26.686Z,78.06
2019-04-25T19:43:59.691Z,80.51
2019-04-25T19:46:32.868Z,80.51
2019-04-25T19:49:06.404Z,80.63
2019-04-25T19:51:39.442Z,78.38
2019-04-25T19:54:12.505Z,79.40
2019-04-25T19:56:45.454Z,80.67
2019-04-25T19:59:18.451Z,80.67
2019-04-25T20:01:52.701Z,83.21
2019-04-25T20:04:25.875Z,83.21
2019-04-25T20:06:58.747Z,84.31
2019-04-25T20:09:31.660Z,84.31
2019-04-25T20:12:04.704Z,85.49
2019-04-25T20:14:37.904Z,87.62
2019-04-25T20:17:10.904Z,90.85
2019-04-25T20:19:44.903Z,92.53
2019-04-25T20:22:18.932Z,93.96
2019-04-25T20:24:52.512Z,94.91
2019-04-25T20:27:25.676Z,94.93
2019-04-25T20:30:00.221Z,94.93
2019-04-25T20:32:33.201Z,95.94
2019-04-25T20:35:06.555Z,96.24
2019-04-25T20:37:39.564Z,96.24
2019-04-25T20:40:13.127Z,96.91
2019-04-25T20:42:47.940Z,97.29
2019-04-25T20:45:21.122Z,97.14
2019-04-25T20:47:54.752Z,97.31
2019-04-25T20:50:27.808Z,97.41
2019-04-25T20:53:00.820Z,97.41
2019-04-25T20:55:34.087Z,97.70
2019-04-25T20:58:07.343Z,98.18
2019-04-25T21:00:44.138Z,97.96
2019-04-25T21:03:17.117Z,98.66
2019-04-25T21:05:51.000Z,98.66
2019-04-25T21:08:24.546Z,98.42
2019-04-25T21:10:57.910Z,98.87
2019-04-25T21:13:30.904Z,98.87
2019-04-25T21:16:04.030Z,98.97
2019-04-25T21:18:36.947Z,99.10
2019-04-25T21:21:10.082Z,99.08
2019-04-25T21:23:43.314Z,99.19
2019-04-25T21:26:16.388Z,99.36
2019-04-25T21:28:52.059Z,99.55
2019-04-25T21:31:31.691Z,99.53
2019-04-25T21:34:04.852Z,99.21
2019-04-25T21:36:38.666Z,99.70
2019-04-25T21:39:11.881Z,99.30
2019-04-25T21:41:44.997Z,99.30
2019-04-25T21:44:21.460Z,99.57
2019-04-25T21:46:54.959Z,99.70
2019-04-25T21:49:28.371Z,99.79
2019-04-25T21:52:01.376Z,99.88
2019-04-25T21:54:34.687Z,99.88
2019-04-25T21:57:08.111Z,100.00
2019-04-25T21:59:41.042Z,99.95
2019-04-25T22:02:14.095Z,100.00
2019-04-25T22:04:47.359Z,100.00
2019-04-25T22:07:20.811Z,100.00
2019-04-25T22:09:54.633Z,100.00
2019-04-25T22:12:28.699Z,100.00
2019-04-25T22:15:01.797Z,100.00
2019-04-25T22:17:34.929Z,100.00
2019-04-25T22:20:08.279Z,100.00
2019-04-25T22:22:41.599Z,100.00
2019-04-25T22:25:14.761Z,100.00
2019-04-25T22:27:48.079Z,100.00
2019-04-25T22:30:21.165Z,100.00
2019-04-25T22:32:54.516Z,100.00
2019-04-25T22:35:27.505Z,100.00
2019-04-25T22:38:00.815Z,100.00
2019-04-25T22:40:34.915Z,100.00
2019-04-25T22:43:08.353Z,100.00
2019-04-25T22:45:42.080Z,100.00
2019-04-25T22:48:15.063Z,100.00
2019-04-25T22:50:48.266Z,100.00
2019-04-25T22:53:25.780Z,100.00
2019-04-25T22:55:55.914Z,100.00
2019-04-25T22:58:29.116Z,100.00
2019-04-25T23:01:03.229Z,100.00
2019-04-25T23:03:36.284Z,100.00
2019-04-25T23:06:09.683Z,100.00
2019-04-25T23:08:42.625Z,100.00
2019-04-25T23:11:15.577Z,100.00
2019-04-25T23:13:48.851Z,100.00
2019-04-25T23:16:22.070Z,100.00
2019-04-25T23:18:55.055Z,100.00
2019-04-25T23:21:28.041Z,100.00
2019-04-25T23:24:01.418Z,100.00
2019-04-25T23:26:34.450Z,100.00
2019-04-25T23:29:08.102Z,100.00
2019-04-25T23:31:41.003Z,100.00
2019-04-25T23:34:15.216Z,100.00
2019-04-25T23:36:48.199Z,100.00
2019-04-25T23:39:21.208Z,100.00
2019-04-25T23:41:54.344Z,100.00
2019-04-25T23:44:27.389Z,100.00
2019-04-25T23:47:00.781Z,100.00
2019-04-25T23:49:33.842Z,100.00
2019-04-25T23:52:07.394Z,100.00
2019-04-25T23:54:40.462Z,100.00
2019-04-25T23:57:13.708Z,100.00
2019-04-25T23:59:47.124Z,100.00
